sensor_id;sensor_type;location;lat;lon;timestamp;P1;durP1;ratioP1;P2;durP2;ratioP2
16135;SDS011;8173;48.354;9.248;2022-07-03T00:02:22;1.40;;;1.30;;
16135;SDS011;8173;48.354;9.248;2022-07-03T00:04:48;1.40;;;1.30;;
16135;SDS011;8173;48.354;9.248;2022-07-03T00:07:15;1.40;;;1.30;;
16135;SDS011;8173;48.354;9.248;2022-07-03T00:09:42;1.30;;;1.20;;
16135;SDS011;8173;48.354;9.248;2022-07-03T00:12:09;1.58;;;1.48;;
16135;SDS011;8173;48.354;9.248;2022-07-03T00:14:36;1.40;;;1.30;;
16135;SDS011;8173;48.354;9.248;2022-07-03T00:17:04;1.33;;;1.23;;
16135;SDS011;8173;48.354;9.248;2022-07-03T00:19:31;1.20;;;1.10;;
16135;SDS011;8173;48.354;9.248;2022-07-03T00:22:00;1.40;;;1.30;;
16135;SDS011;8173;48.354;9.248;2022-07-03T00:24:31;1.23;;;1.13;;
16135;SDS011;8173;48.354;9.248;2022-07-03T00:27:05;1.40;;;1.30;;
16135;SDS011;8173;48.354;9.248;2022-07-03T00:29:36;1.38;;;1.27;;
16135;SDS011;8173;48.354;9.248;2022-07-03T00:32:06;1.40;;;1.30;;
16135;SDS011;8173;48.354;9.248;2022-07-03T00:34:34;1.35;;;1.25;;
16135;SDS011;8173;48.354;9.248;2022-07-03T00:37:03;1.33;;;1.23;;
16135;SDS011;8173;48.354;9.248;2022-07-03T00:39:34;1.50;;;1.40;;
16135;SDS011;8173;48.354;9.248;2022-07-03T00:42:03;1.52;;;1.42;;
16135;SDS011;8173;48.354;9.248;2022-07-03T00:44:33;1.33;;;1.23;;
16135;SDS011;8173;48.354;9.248;2022-07-03T00:47:03;1.40;;;1.30;;
16135;SDS011;8173;48.354;9.248;2022-07-03T00:49:33;1.20;;;1.20;;
16135;SDS011;8173;48.354;9.248;2022-07-03T00:52:03;2.95;;;1.33;;
16135;SDS011;8173;48.354;9.248;2022-07-03T00:54:32;1.40;;;1.27;;
16135;SDS011;8173;48.354;9.248;2022-07-03T00:57:00;1.40;;;1.30;;
16135;SDS011;8173;48.354;9.248;2022-07-03T00:59:28;1.42;;;1.33;;
16135;SDS011;8173;48.354;9.248;2022-07-03T01:01:57;1.40;;;1.30;;
16135;SDS011;8173;48.354;9.248;2022-07-03T01:04:32;1.30;;;1.20;;
16135;SDS011;8173;48.354;9.248;2022-07-03T01:07:15;1.42;;;1.30;;
16135;SDS011;8173;48.354;9.248;2022-07-03T01:09:50;1.20;;;1.10;;
16135;SDS011;8173;48.354;9.248;2022-07-03T01:12:27;1.40;;;1.20;;
16135;SDS011;8173;48.354;9.248;2022-07-03T01:15:04;1.40;;;1.30;;
16135;SDS011;8173;48.354;9.248;2022-07-03T01:17:37;1.30;;;1.20;;
16135;SDS011;8173;48.354;9.248;2022-07-03T01:20:07;1.50;;;1.40;;
16135;SDS011;8173;48.354;9.248;2022-07-03T01:22:35;1.33;;;1.23;;
16135;SDS011;8173;48.354;9.248;2022-07-03T01:25:09;1.13;;;1.13;;
16135;SDS011;8173;48.354;9.248;2022-07-03T01:27:57;1.30;;;1.20;;
16135;SDS011;8173;48.354;9.248;2022-07-03T01:30:34;1.42;;;1.33;;
16135;SDS011;8173;48.354;9.248;2022-07-03T01:33:04;1.30;;;1.20;;
16135;SDS011;8173;48.354;9.248;2022-07-03T01:35:33;1.48;;;1.30;;
16135;SDS011;8173;48.354;9.248;2022-07-03T01:38:04;1.38;;;1.27;;
16135;SDS011;8173;48.354;9.248;2022-07-03T01:40:33;1.40;;;1.30;;
16135;SDS011;8173;48.354;9.248;2022-07-03T01:43:04;1.40;;;1.30;;
16135;SDS011;8173;48.354;9.248;2022-07-03T01:45:34;1.60;;;1.50;;
16135;SDS011;8173;48.354;9.248;2022-07-03T01:48:05;1.45;;;1.33;;
16135;SDS011;8173;48.354;9.248;2022-07-03T01:50:33;1.40;;;1.30;;
16135;SDS011;8173;48.354;9.248;2022-07-03T01:53:00;1.40;;;1.30;;
16135;SDS011;8173;48.354;9.248;2022-07-03T01:55:29;1.40;;;1.30;;
16135;SDS011;8173;48.354;9.248;2022-07-03T01:57:58;1.30;;;1.20;;
16135;SDS011;8173;48.354;9.248;2022-07-03T02:00:27;1.40;;;1.30;;
16135;SDS011;8173;48.354;9.248;2022-07-03T02:02:56;1.48;;;1.38;;
16135;SDS011;8173;48.354;9.248;2022-07-03T02:05:27;1.40;;;1.30;;
16135;SDS011;8173;48.354;9.248;2022-07-03T02:08:00;1.67;;;1.58;;
16135;SDS011;8173;48.354;9.248;2022-07-03T02:10:34;1.25;;;1.15;;
16135;SDS011;8173;48.354;9.248;2022-07-03T02:13:07;1.40;;;1.30;;
16135;SDS011;8173;48.354;9.248;2022-07-03T02:15:42;1.30;;;1.20;;
16135;SDS011;8173;48.354;9.248;2022-07-03T02:18:11;1.33;;;1.23;;
16135;SDS011;8173;48.354;9.248;2022-07-03T02:20:45;1.40;;;1.30;;
16135;SDS011;8173;48.354;9.248;2022-07-03T02:23:18;1.58;;;1.48;;
16135;SDS011;8173;48.354;9.248;2022-07-03T02:25:50;1.40;;;1.30;;
16135;SDS011;8173;48.354;9.248;2022-07-03T02:28:22;1.50;;;1.40;;
16135;SDS011;8173;48.354;9.248;2022-07-03T02:30:59;1.45;;;1.35;;
16135;SDS011;8173;48.354;9.248;2022-07-03T02:33:29;1.60;;;1.50;;
16135;SDS011;8173;48.354;9.248;2022-07-03T02:35:57;2.53;;;1.60;;
16135;SDS011;8173;48.354;9.248;2022-07-03T02:38:24;1.67;;;1.58;;
16135;SDS011;8173;48.354;9.248;2022-07-03T02:40:55;1.80;;;1.70;;
16135;SDS011;8173;48.354;9.248;2022-07-03T02:43:28;1.85;;;1.75;;
16135;SDS011;8173;48.354;9.248;2022-07-03T02:46:04;1.70;;;1.60;;
16135;SDS011;8173;48.354;9.248;2022-07-03T02:48:47;1.80;;;1.70;;
16135;SDS011;8173;48.354;9.248;2022-07-03T02:51:17;1.80;;;1.70;;
16135;SDS011;8173;48.354;9.248;2022-07-03T02:53:50;1.90;;;1.80;;
16135;SDS011;8173;48.354;9.248;2022-07-03T02:56:27;1.80;;;1.70;;
16135;SDS011;8173;48.354;9.248;2022-07-03T02:59:03;1.70;;;1.60;;
16135;SDS011;8173;48.354;9.248;2022-07-03T03:01:42;1.60;;;1.50;;
16135;SDS011;8173;48.354;9.248;2022-07-03T03:04:14;1.60;;;1.50;;
16135;SDS011;8173;48.354;9.248;2022-07-03T03:06:47;1.70;;;1.60;;
16135;SDS011;8173;48.354;9.248;2022-07-03T03:09:20;1.52;;;1.42;;
16135;SDS011;8173;48.354;9.248;2022-07-03T03:11:52;1.50;;;1.40;;
16135;SDS011;8173;48.354;9.248;2022-07-03T03:14:27;1.95;;;1.50;;
16135;SDS011;8173;48.354;9.248;2022-07-03T03:17:05;1.70;;;1.40;;
16135;SDS011;8173;48.354;9.248;2022-07-03T03:19:36;1.63;;;1.52;;
16135;SDS011;8173;48.354;9.248;2022-07-03T03:22:09;1.40;;;1.30;;
16135;SDS011;8173;48.354;9.248;2022-07-03T03:24:49;1.60;;;1.50;;
16135;SDS011;8173;48.354;9.248;2022-07-03T03:27:16;1.50;;;1.40;;
16135;SDS011;8173;48.354;9.248;2022-07-03T03:29:44;1.13;;;1.10;;
16135;SDS011;8173;48.354;9.248;2022-07-03T03:32:13;1.40;;;1.30;;
16135;SDS011;8173;48.354;9.248;2022-07-03T03:34:42;1.40;;;1.30;;
16135;SDS011;8173;48.354;9.248;2022-07-03T03:37:11;1.50;;;1.40;;
16135;SDS011;8173;48.354;9.248;2022-07-03T03:39:38;1.20;;;1.10;;
16135;SDS011;8173;48.354;9.248;2022-07-03T03:42:05;1.50;;;1.40;;
16135;SDS011;8173;48.354;9.248;2022-07-03T03:44:33;1.40;;;1.30;;
16135;SDS011;8173;48.354;9.248;2022-07-03T03:47:00;1.40;;;1.30;;
16135;SDS011;8173;48.354;9.248;2022-07-03T03:49:28;1.40;;;1.30;;
16135;SDS011;8173;48.354;9.248;2022-07-03T03:51:56;1.70;;;1.60;;
16135;SDS011;8173;48.354;9.248;2022-07-03T03:54:23;1.30;;;1.20;;
16135;SDS011;8173;48.354;9.248;2022-07-03T03:56:49;1.67;;;1.40;;
16135;SDS011;8173;48.354;9.248;2022-07-03T03:59:16;1.50;;;1.40;;
16135;SDS011;8173;48.354;9.248;2022-07-03T04:01:43;1.50;;;1.40;;
16135;SDS011;8173;48.354;9.248;2022-07-03T04:04:11;1.75;;;1.65;;
16135;SDS011;8173;48.354;9.248;2022-07-03T04:06:43;1.30;;;1.20;;
16135;SDS011;8173;48.354;9.248;2022-07-03T04:09:10;1.55;;;1.45;;
16135;SDS011;8173;48.354;9.248;2022-07-03T04:11:37;1.23;;;1.13;;
16135;SDS011;8173;48.354;9.248;2022-07-03T04:14:04;1.60;;;1.50;;
16135;SDS011;8173;48.354;9.248;2022-07-03T04:16:31;1.60;;;1.40;;
16135;SDS011;8173;48.354;9.248;2022-07-03T04:18:59;1.50;;;1.30;;
16135;SDS011;8173;48.354;9.248;2022-07-03T04:21:26;1.48;;;1.38;;
16135;SDS011;8173;48.354;9.248;2022-07-03T04:23:55;1.60;;;1.50;;
16135;SDS011;8173;48.354;9.248;2022-07-03T04:26:22;1.70;;;1.60;;
16135;SDS011;8173;48.354;9.248;2022-07-03T04:28:48;2.45;;;1.60;;
16135;SDS011;8173;48.354;9.248;2022-07-03T04:31:15;1.70;;;1.60;;
16135;SDS011;8173;48.354;9.248;2022-07-03T04:33:42;1.80;;;1.70;;
16135;SDS011;8173;48.354;9.248;2022-07-03T04:36:09;1.42;;;1.33;;
16135;SDS011;8173;48.354;9.248;2022-07-03T04:38:35;1.65;;;1.50;;
16135;SDS011;8173;48.354;9.248;2022-07-03T04:41:04;1.40;;;1.30;;
16135;SDS011;8173;48.354;9.248;2022-07-03T04:43:30;1.40;;;1.30;;
16135;SDS011;8173;48.354;9.248;2022-07-03T04:45:57;1.55;;;1.40;;
16135;SDS011;8173;48.354;9.248;2022-07-03T04:48:24;1.30;;;1.20;;
16135;SDS011;8173;48.354;9.248;2022-07-03T04:50:50;1.08;;;1.08;;
16135;SDS011;8173;48.354;9.248;2022-07-03T04:53:17;1.10;;;1.00;;
16135;SDS011;8173;48.354;9.248;2022-07-03T04:55:45;1.55;;;1.30;;
16135;SDS011;8173;48.354;9.248;2022-07-03T04:58:13;1.40;;;1.30;;
16135;SDS011;8173;48.354;9.248;2022-07-03T05:00:40;1.20;;;1.10;;
16135;SDS011;8173;48.354;9.248;2022-07-03T05:03:06;1.08;;;0.98;;
16135;SDS011;8173;48.354;9.248;2022-07-03T05:05:33;1.00;;;1.00;;
16135;SDS011;8173;48.354;9.248;2022-07-03T05:08:00;1.02;;;1.00;;
16135;SDS011;8173;48.354;9.248;2022-07-03T05:10:27;0.90;;;0.90;;
16135;SDS011;8173;48.354;9.248;2022-07-03T05:12:53;1.00;;;1.00;;
16135;SDS011;8173;48.354;9.248;2022-07-03T05:15:22;0.93;;;0.82;;
16135;SDS011;8173;48.354;9.248;2022-07-03T05:17:49;0.90;;;0.90;;
16135;SDS011;8173;48.354;9.248;2022-07-03T05:20:16;1.05;;;0.98;;
16135;SDS011;8173;48.354;9.248;2022-07-03T05:22:53;1.05;;;0.95;;
16135;SDS011;8173;48.354;9.248;2022-07-03T05:25:20;0.90;;;0.90;;
16135;SDS011;8173;48.354;9.248;2022-07-03T05:27:48;1.17;;;1.08;;
16135;SDS011;8173;48.354;9.248;2022-07-03T05:30:16;1.73;;;1.17;;
16135;SDS011;8173;48.354;9.248;2022-07-03T05:32:44;1.33;;;1.00;;
16135;SDS011;8173;48.354;9.248;2022-07-03T05:35:11;0.80;;;0.80;;
16135;SDS011;8173;48.354;9.248;2022-07-03T05:37:38;0.98;;;0.90;;
16135;SDS011;8173;48.354;9.248;2022-07-03T05:40:05;0.90;;;0.80;;
16135;SDS011;8173;48.354;9.248;2022-07-03T05:42:31;1.20;;;0.90;;
16135;SDS011;8173;48.354;9.248;2022-07-03T05:44:58;0.98;;;0.98;;
16135;SDS011;8173;48.354;9.248;2022-07-03T05:47:25;0.90;;;0.90;;
16135;SDS011;8173;48.354;9.248;2022-07-03T05:49:54;0.80;;;0.80;;
16135;SDS011;8173;48.354;9.248;2022-07-03T05:52:20;0.80;;;0.80;;
16135;SDS011;8173;48.354;9.248;2022-07-03T05:54:47;0.90;;;0.90;;
16135;SDS011;8173;48.354;9.248;2022-07-03T05:57:14;1.02;;;0.93;;
16135;SDS011;8173;48.354;9.248;2022-07-03T05:59:41;1.08;;;0.98;;
16135;SDS011;8173;48.354;9.248;2022-07-03T06:02:08;0.90;;;0.90;;
16135;SDS011;8173;48.354;9.248;2022-07-03T06:04:35;0.90;;;0.90;;
16135;SDS011;8173;48.354;9.248;2022-07-03T06:07:03;0.90;;;0.90;;
16135;SDS011;8173;48.354;9.248;2022-07-03T06:09:30;0.80;;;0.80;;
16135;SDS011;8173;48.354;9.248;2022-07-03T06:11:56;0.90;;;0.90;;
16135;SDS011;8173;48.354;9.248;2022-07-03T06:14:23;1.17;;;0.90;;
16135;SDS011;8173;48.354;9.248;2022-07-03T06:16:50;0.80;;;0.80;;
16135;SDS011;8173;48.354;9.248;2022-07-03T06:19:17;0.85;;;0.85;;
16135;SDS011;8173;48.354;9.248;2022-07-03T06:21:43;1.00;;;0.90;;
16135;SDS011;8173;48.354;9.248;2022-07-03T06:24:12;1.50;;;0.90;;
16135;SDS011;8173;48.354;9.248;2022-07-03T06:26:38;1.00;;;0.90;;
16135;SDS011;8173;48.354;9.248;2022-07-03T06:29:05;0.80;;;0.80;;
16135;SDS011;8173;48.354;9.248;2022-07-03T06:31:32;0.80;;;0.80;;
16135;SDS011;8173;48.354;9.248;2022-07-03T06:33:59;0.90;;;0.90;;
16135;SDS011;8173;48.354;9.248;2022-07-03T06:36:26;0.85;;;0.85;;
16135;SDS011;8173;48.354;9.248;2022-07-03T06:38:52;0.73;;;0.73;;
16135;SDS011;8173;48.354;9.248;2022-07-03T06:41:20;0.80;;;0.80;;
16135;SDS011;8173;48.354;9.248;2022-07-03T06:43:47;0.90;;;0.90;;
16135;SDS011;8173;48.354;9.248;2022-07-03T06:46:14;0.80;;;0.80;;
16135;SDS011;8173;48.354;9.248;2022-07-03T06:48:41;0.80;;;0.80;;
16135;SDS011;8173;48.354;9.248;2022-07-03T06:51:07;0.80;;;0.80;;
16135;SDS011;8173;48.354;9.248;2022-07-03T06:53:34;1.17;;;0.90;;
16135;SDS011;8173;48.354;9.248;2022-07-03T06:56:01;0.90;;;0.90;;
16135;SDS011;8173;48.354;9.248;2022-07-03T06:58:29;0.70;;;0.70;;
16135;SDS011;8173;48.354;9.248;2022-07-03T07:00:56;0.80;;;0.80;;
16135;SDS011;8173;48.354;9.248;2022-07-03T07:03:22;0.80;;;0.80;;
16135;SDS011;8173;48.354;9.248;2022-07-03T07:05:49;0.90;;;0.90;;
16135;SDS011;8173;48.354;9.248;2022-07-03T07:08:16;0.80;;;0.80;;
16135;SDS011;8173;48.354;9.248;2022-07-03T07:10:43;1.25;;;0.95;;
16135;SDS011;8173;48.354;9.248;2022-07-03T07:13:09;0.80;;;0.80;;
16135;SDS011;8173;48.354;9.248;2022-07-03T07:15:38;0.80;;;0.80;;
16135;SDS011;8173;48.354;9.248;2022-07-03T07:18:04;0.80;;;0.80;;
16135;SDS011;8173;48.354;9.248;2022-07-03T07:20:31;0.98;;;0.80;;
16135;SDS011;8173;48.354;9.248;2022-07-03T07:22:58;0.80;;;0.80;;
16135;SDS011;8173;48.354;9.248;2022-07-03T07:25:25;0.80;;;0.80;;
16135;SDS011;8173;48.354;9.248;2022-07-03T07:27:51;0.70;;;0.70;;
16135;SDS011;8173;48.354;9.248;2022-07-03T07:30:18;0.85;;;0.85;;
16135;SDS011;8173;48.354;9.248;2022-07-03T07:32:46;3.85;;;0.90;;
16135;SDS011;8173;48.354;9.248;2022-07-03T07:35:13;0.80;;;0.80;;
16135;SDS011;8173;48.354;9.248;2022-07-03T07:37:40;1.02;;;0.80;;
16135;SDS011;8173;48.354;9.248;2022-07-03T07:40:07;0.80;;;0.80;;
16135;SDS011;8173;48.354;9.248;2022-07-03T07:42:35;0.80;;;0.80;;
16135;SDS011;8173;48.354;9.248;2022-07-03T07:45:01;0.90;;;0.90;;
16135;SDS011;8173;48.354;9.248;2022-07-03T07:47:28;1.17;;;0.90;;
16135;SDS011;8173;48.354;9.248;2022-07-03T07:49:56;1.10;;;1.00;;
16135;SDS011;8173;48.354;9.248;2022-07-03T07:52:23;0.80;;;0.80;;
16135;SDS011;8173;48.354;9.248;2022-07-03T07:54:50;0.90;;;0.90;;
16135;SDS011;8173;48.354;9.248;2022-07-03T07:57:17;0.80;;;0.80;;
16135;SDS011;8173;48.354;9.248;2022-07-03T07:59:44;0.95;;;0.90;;
16135;SDS011;8173;48.354;9.248;2022-07-03T08:02:10;0.80;;;0.80;;
16135;SDS011;8173;48.354;9.248;2022-07-03T08:04:56;1.02;;;0.90;;
16135;SDS011;8173;48.354;9.248;2022-07-03T08:07:40;0.88;;;0.75;;
16135;SDS011;8173;48.354;9.248;2022-07-03T08:10:07;0.80;;;0.80;;
16135;SDS011;8173;48.354;9.248;2022-07-03T08:12:34;1.55;;;1.00;;
16135;SDS011;8173;48.354;9.248;2022-07-03T08:15:01;1.00;;;0.80;;
16135;SDS011;8173;48.354;9.248;2022-07-03T08:17:28;0.93;;;0.93;;
16135;SDS011;8173;48.354;9.248;2022-07-03T08:19:54;1.33;;;0.82;;
16135;SDS011;8173;48.354;9.248;2022-07-03T08:22:23;0.95;;;0.90;;
16135;SDS011;8173;48.354;9.248;2022-07-03T08:24:49;0.95;;;0.90;;
16135;SDS011;8173;48.354;9.248;2022-07-03T08:27:16;1.05;;;0.95;;
16135;SDS011;8173;48.354;9.248;2022-07-03T08:29:44;0.80;;;0.80;;
16135;SDS011;8173;48.354;9.248;2022-07-03T08:32:24;0.80;;;0.80;;
16135;SDS011;8173;48.354;9.248;2022-07-03T08:34:51;0.95;;;0.90;;
16135;SDS011;8173;48.354;9.248;2022-07-03T08:37:19;0.90;;;0.90;;
16135;SDS011;8173;48.354;9.248;2022-07-03T08:39:46;2.35;;;0.90;;
16135;SDS011;8173;48.354;9.248;2022-07-03T08:42:13;0.85;;;0.85;;
16135;SDS011;8173;48.354;9.248;2022-07-03T08:44:42;0.90;;;0.90;;
16135;SDS011;8173;48.354;9.248;2022-07-03T08:47:11;0.90;;;0.90;;
16135;SDS011;8173;48.354;9.248;2022-07-03T08:49:38;1.05;;;0.80;;
16135;SDS011;8173;48.354;9.248;2022-07-03T08:52:07;1.00;;;0.90;;
16135;SDS011;8173;48.354;9.248;2022-07-03T08:54:37;1.10;;;1.00;;
16135;SDS011;8173;48.354;9.248;2022-07-03T08:57:04;1.00;;;0.90;;
16135;SDS011;8173;48.354;9.248;2022-07-03T08:59:32;0.90;;;0.90;;
16135;SDS011;8173;48.354;9.248;2022-07-03T09:02:03;0.88;;;0.80;;
16135;SDS011;8173;48.354;9.248;2022-07-03T09:04:30;0.80;;;0.80;;
16135;SDS011;8173;48.354;9.248;2022-07-03T09:06:57;1.88;;;0.75;;
16135;SDS011;8173;48.354;9.248;2022-07-03T09:09:25;0.80;;;0.80;;
16135;SDS011;8173;48.354;9.248;2022-07-03T09:11:54;1.00;;;0.90;;
16135;SDS011;8173;48.354;9.248;2022-07-03T09:14:21;1.02;;;0.90;;
16135;SDS011;8173;48.354;9.248;2022-07-03T09:16:48;0.85;;;0.85;;
16135;SDS011;8173;48.354;9.248;2022-07-03T09:19:16;0.73;;;0.73;;
16135;SDS011;8173;48.354;9.248;2022-07-03T09:22:18;2.00;;;1.08;;
16135;SDS011;8173;48.354;9.248;2022-07-03T09:24:47;0.90;;;0.80;;
16135;SDS011;8173;48.354;9.248;2022-07-03T09:27:17;0.80;;;0.80;;
16135;SDS011;8173;48.354;9.248;2022-07-03T09:29:50;0.88;;;0.80;;
16135;SDS011;8173;48.354;9.248;2022-07-03T09:32:19;0.90;;;0.80;;
16135;SDS011;8173;48.354;9.248;2022-07-03T09:34:49;0.80;;;0.80;;
16135;SDS011;8173;48.354;9.248;2022-07-03T09:37:34;1.80;;;0.90;;
16135;SDS011;8173;48.354;9.248;2022-07-03T09:40:03;0.80;;;0.80;;
16135;SDS011;8173;48.354;9.248;2022-07-03T09:42:31;0.80;;;0.80;;
16135;SDS011;8173;48.354;9.248;2022-07-03T09:44:58;1.33;;;0.90;;
16135;SDS011;8173;48.354;9.248;2022-07-03T09:47:25;1.05;;;0.90;;
16135;SDS011;8173;48.354;9.248;2022-07-03T09:49:53;1.77;;;0.80;;
16135;SDS011;8173;48.354;9.248;2022-07-03T09:52:36;0.90;;;0.90;;
16135;SDS011;8173;48.354;9.248;2022-07-03T09:55:14;0.98;;;0.98;;
16135;SDS011;8173;48.354;9.248;2022-07-03T09:57:44;0.73;;;0.70;;
16135;SDS011;8173;48.354;9.248;2022-07-03T10:00:24;1.15;;;0.80;;
16135;SDS011;8173;48.354;9.248;2022-07-03T10:02:52;0.90;;;0.90;;
16135;SDS011;8173;48.354;9.248;2022-07-03T10:05:20;1.80;;;0.80;;
16135;SDS011;8173;48.354;9.248;2022-07-03T10:07:51;0.80;;;0.80;;
16135;SDS011;8173;48.354;9.248;2022-07-03T10:10:21;0.80;;;0.80;;
16135;SDS011;8173;48.354;9.248;2022-07-03T10:12:51;0.80;;;0.80;;
16135;SDS011;8173;48.354;9.248;2022-07-03T10:15:19;0.90;;;0.90;;
16135;SDS011;8173;48.354;9.248;2022-07-03T10:17:47;0.80;;;0.80;;
16135;SDS011;8173;48.354;9.248;2022-07-03T10:20:19;0.93;;;0.75;;
16135;SDS011;8173;48.354;9.248;2022-07-03T10:22:49;0.90;;;0.90;;
16135;SDS011;8173;48.354;9.248;2022-07-03T10:25:17;0.90;;;0.90;;
16135;SDS011;8173;48.354;9.248;2022-07-03T10:27:44;1.15;;;0.90;;
16135;SDS011;8173;48.354;9.248;2022-07-03T10:30:14;0.80;;;0.80;;
16135;SDS011;8173;48.354;9.248;2022-07-03T10:32:42;1.27;;;1.00;;
16135;SDS011;8173;48.354;9.248;2022-07-03T10:35:10;0.80;;;0.80;;
16135;SDS011;8173;48.354;9.248;2022-07-03T10:37:42;0.98;;;0.90;;
16135;SDS011;8173;48.354;9.248;2022-07-03T10:40:32;1.00;;;0.90;;
16135;SDS011;8173;48.354;9.248;2022-07-03T10:43:25;0.88;;;0.88;;
16135;SDS011;8173;48.354;9.248;2022-07-03T10:46:13;1.00;;;1.00;;
16135;SDS011;8173;48.354;9.248;2022-07-03T10:48:50;1.02;;;0.90;;
16135;SDS011;8173;48.354;9.248;2022-07-03T10:51:18;1.02;;;0.93;;
16135;SDS011;8173;48.354;9.248;2022-07-03T10:53:44;1.13;;;0.93;;
16135;SDS011;8173;48.354;9.248;2022-07-03T10:56:11;1.00;;;0.90;;
16135;SDS011;8173;48.354;9.248;2022-07-03T10:58:54;0.98;;;0.98;;
16135;SDS011;8173;48.354;9.248;2022-07-03T11:01:26;0.90;;;0.90;;
16135;SDS011;8173;48.354;9.248;2022-07-03T11:03:54;0.95;;;0.95;;
16135;SDS011;8173;48.354;9.248;2022-07-03T11:09:27;1.10;;;1.00;;
16135;SDS011;8173;48.354;9.248;2022-07-03T11:11:54;1.45;;;0.90;;
16135;SDS011;8173;48.354;9.248;2022-07-03T11:14:21;0.80;;;0.80;;
16135;SDS011;8173;48.354;9.248;2022-07-03T11:16:50;1.00;;;0.90;;
16135;SDS011;8173;48.354;9.248;2022-07-03T11:19:43;1.50;;;0.80;;
16135;SDS011;8173;48.354;9.248;2022-07-03T11:22:31;0.90;;;0.90;;
16135;SDS011;8173;48.354;9.248;2022-07-03T11:25:06;1.17;;;0.90;;
16135;SDS011;8173;48.354;9.248;2022-07-03T11:27:34;1.00;;;0.90;;
16135;SDS011;8173;48.354;9.248;2022-07-03T11:30:01;0.95;;;0.90;;
16135;SDS011;8173;48.354;9.248;2022-07-03T11:32:46;0.80;;;0.80;;
16135;SDS011;8173;48.354;9.248;2022-07-03T11:38:08;1.00;;;0.90;;
16135;SDS011;8173;48.354;9.248;2022-07-03T11:40:35;0.85;;;0.85;;
16135;SDS011;8173;48.354;9.248;2022-07-03T11:43:05;1.00;;;0.98;;
16135;SDS011;8173;48.354;9.248;2022-07-03T11:45:32;0.82;;;0.80;;
16135;SDS011;8173;48.354;9.248;2022-07-03T11:48:00;0.90;;;0.90;;
16135;SDS011;8173;48.354;9.248;2022-07-03T11:50:36;0.90;;;0.80;;
16135;SDS011;8173;48.354;9.248;2022-07-03T11:53:14;0.88;;;0.80;;
16135;SDS011;8173;48.354;9.248;2022-07-03T11:55:45;1.00;;;0.90;;
16135;SDS011;8173;48.354;9.248;2022-07-03T11:58:12;0.95;;;0.90;;
16135;SDS011;8173;48.354;9.248;2022-07-03T12:00:39;0.85;;;0.85;;
16135;SDS011;8173;48.354;9.248;2022-07-03T12:03:08;1.40;;;0.90;;
16135;SDS011;8173;48.354;9.248;2022-07-03T12:05:35;1.23;;;1.13;;
16135;SDS011;8173;48.354;9.248;2022-07-03T12:08:02;0.80;;;0.80;;
16135;SDS011;8173;48.354;9.248;2022-07-03T12:10:36;0.90;;;0.90;;
16135;SDS011;8173;48.354;9.248;2022-07-03T12:13:04;1.00;;;0.95;;
16135;SDS011;8173;48.354;9.248;2022-07-03T12:15:43;0.80;;;0.80;;
16135;SDS011;8173;48.354;9.248;2022-07-03T12:18:12;1.00;;;0.80;;
16135;SDS011;8173;48.354;9.248;2022-07-03T12:20:39;0.80;;;0.80;;
16135;SDS011;8173;48.354;9.248;2022-07-03T12:23:06;0.80;;;0.80;;
16135;SDS011;8173;48.354;9.248;2022-07-03T12:25:37;0.80;;;0.80;;
16135;SDS011;8173;48.354;9.248;2022-07-03T12:28:05;0.70;;;0.70;;
16135;SDS011;8173;48.354;9.248;2022-07-03T12:30:32;0.80;;;0.80;;
16135;SDS011;8173;48.354;9.248;2022-07-03T12:32:59;0.90;;;0.90;;
16135;SDS011;8173;48.354;9.248;2022-07-03T12:35:28;0.73;;;0.73;;
16135;SDS011;8173;48.354;9.248;2022-07-03T12:37:55;0.95;;;0.90;;
16135;SDS011;8173;48.354;9.248;2022-07-03T12:40:22;0.90;;;0.90;;
16135;SDS011;8173;48.354;9.248;2022-07-03T12:42:50;0.98;;;0.85;;
16135;SDS011;8173;48.354;9.248;2022-07-03T12:45:18;0.80;;;0.80;;
16135;SDS011;8173;48.354;9.248;2022-07-03T12:47:46;0.82;;;0.80;;
16135;SDS011;8173;48.354;9.248;2022-07-03T12:50:23;0.98;;;0.90;;
16135;SDS011;8173;48.354;9.248;2022-07-03T12:52:52;1.10;;;0.90;;
16135;SDS011;8173;48.354;9.248;2022-07-03T12:55:23;0.80;;;0.80;;
16135;SDS011;8173;48.354;9.248;2022-07-03T12:57:50;0.80;;;0.80;;
16135;SDS011;8173;48.354;9.248;2022-07-03T13:00:57;0.80;;;0.80;;
16135;SDS011;8173;48.354;9.248;2022-07-03T13:03:27;1.05;;;0.80;;
16135;SDS011;8173;48.354;9.248;2022-07-03T13:05:55;1.15;;;1.00;;
16135;SDS011;8173;48.354;9.248;2022-07-03T13:08:23;0.70;;;0.70;;
16135;SDS011;8173;48.354;9.248;2022-07-03T13:10:56;1.00;;;0.88;;
16135;SDS011;8173;48.354;9.248;2022-07-03T13:13:24;1.00;;;0.90;;
16135;SDS011;8173;48.354;9.248;2022-07-03T13:15:52;0.82;;;0.82;;
16135;SDS011;8173;48.354;9.248;2022-07-03T13:18:19;0.98;;;0.80;;
16135;SDS011;8173;48.354;9.248;2022-07-03T13:20:46;0.90;;;0.90;;
16135;SDS011;8173;48.354;9.248;2022-07-03T13:23:13;1.05;;;0.80;;
16135;SDS011;8173;48.354;9.248;2022-07-03T13:25:41;1.08;;;0.80;;
16135;SDS011;8173;48.354;9.248;2022-07-03T13:28:09;1.00;;;0.90;;
16135;SDS011;8173;48.354;9.248;2022-07-03T13:30:37;0.90;;;0.90;;
16135;SDS011;8173;48.354;9.248;2022-07-03T13:33:04;0.80;;;0.80;;
16135;SDS011;8173;48.354;9.248;2022-07-03T13:35:32;1.17;;;0.90;;
16135;SDS011;8173;48.354;9.248;2022-07-03T13:38:00;1.00;;;0.90;;
16135;SDS011;8173;48.354;9.248;2022-07-03T13:40:27;1.00;;;0.98;;
16135;SDS011;8173;48.354;9.248;2022-07-03T13:42:55;0.90;;;0.80;;
16135;SDS011;8173;48.354;9.248;2022-07-03T13:45:22;0.80;;;0.80;;
16135;SDS011;8173;48.354;9.248;2022-07-03T13:47:49;1.10;;;0.80;;
16135;SDS011;8173;48.354;9.248;2022-07-03T13:50:16;0.95;;;0.90;;
16135;SDS011;8173;48.354;9.248;2022-07-03T13:52:43;2.45;;;0.80;;
16135;SDS011;8173;48.354;9.248;2022-07-03T13:55:10;1.10;;;0.90;;
16135;SDS011;8173;48.354;9.248;2022-07-03T13:57:37;1.40;;;0.90;;
16135;SDS011;8173;48.354;9.248;2022-07-03T14:00:06;0.82;;;0.80;;
16135;SDS011;8173;48.354;9.248;2022-07-03T14:02:35;0.90;;;0.90;;
16135;SDS011;8173;48.354;9.248;2022-07-03T14:05:01;0.80;;;0.80;;
16135;SDS011;8173;48.354;9.248;2022-07-03T14:07:28;1.08;;;0.98;;
16135;SDS011;8173;48.354;9.248;2022-07-03T14:09:55;1.55;;;0.85;;
16135;SDS011;8173;48.354;9.248;2022-07-03T14:12:22;0.80;;;0.80;;
16135;SDS011;8173;48.354;9.248;2022-07-03T14:14:49;0.90;;;0.90;;
16135;SDS011;8173;48.354;9.248;2022-07-03T14:17:17;0.98;;;0.88;;
16135;SDS011;8173;48.354;9.248;2022-07-03T14:19:44;0.80;;;0.80;;
16135;SDS011;8173;48.354;9.248;2022-07-03T14:22:10;0.80;;;0.80;;
16135;SDS011;8173;48.354;9.248;2022-07-03T14:24:37;1.00;;;0.90;;
16135;SDS011;8173;48.354;9.248;2022-07-03T14:27:04;1.63;;;0.90;;
16135;SDS011;8173;48.354;9.248;2022-07-03T14:29:48;0.80;;;0.80;;
16135;SDS011;8173;48.354;9.248;2022-07-03T14:32:34;0.90;;;0.90;;
16135;SDS011;8173;48.354;9.248;2022-07-03T14:35:01;0.90;;;0.90;;
16135;SDS011;8173;48.354;9.248;2022-07-03T14:37:29;0.80;;;0.80;;
16135;SDS011;8173;48.354;9.248;2022-07-03T14:39:56;0.80;;;0.80;;
16135;SDS011;8173;48.354;9.248;2022-07-03T14:42:23;0.85;;;0.82;;
16135;SDS011;8173;48.354;9.248;2022-07-03T14:44:50;0.80;;;0.80;;
16135;SDS011;8173;48.354;9.248;2022-07-03T14:47:18;0.75;;;0.75;;
16135;SDS011;8173;48.354;9.248;2022-07-03T14:49:47;0.82;;;0.82;;
16135;SDS011;8173;48.354;9.248;2022-07-03T14:52:14;0.80;;;0.80;;
16135;SDS011;8173;48.354;9.248;2022-07-03T14:54:41;1.08;;;0.80;;
16135;SDS011;8173;48.354;9.248;2022-07-03T14:57:12;0.82;;;0.82;;
16135;SDS011;8173;48.354;9.248;2022-07-03T14:59:50;0.80;;;0.80;;
16135;SDS011;8173;48.354;9.248;2022-07-03T15:02:30;0.85;;;0.82;;
16135;SDS011;8173;48.354;9.248;2022-07-03T15:05:05;1.00;;;0.90;;
16135;SDS011;8173;48.354;9.248;2022-07-03T15:07:34;0.90;;;0.90;;
16135;SDS011;8173;48.354;9.248;2022-07-03T15:10:04;1.48;;;0.98;;
16135;SDS011;8173;48.354;9.248;2022-07-03T15:12:33;1.00;;;0.90;;
16135;SDS011;8173;48.354;9.248;2022-07-03T15:15:04;1.35;;;0.98;;
16135;SDS011;8173;48.354;9.248;2022-07-03T15:17:35;0.80;;;0.80;;
16135;SDS011;8173;48.354;9.248;2022-07-03T15:20:04;1.88;;;0.80;;
16135;SDS011;8173;48.354;9.248;2022-07-03T15:22:32;1.20;;;0.90;;